sensor_id;sensor_type;location;lat;lon;timestamp;temperature;humidity
78366;HTU21D;67641;59.864;30.464;2023-07-02T01:21:41;24.19;49.18
78366;HTU21D;67641;59.864;30.464;2023-07-02T01:24:09;24.16;49.12
78366;HTU21D;67641;59.864;30.464;2023-07-02T01:27:44;24.15;48.92
78366;HTU21D;67641;59.864;30.464;2023-07-02T01:30:11;24.14;48.84
78366;HTU21D;67641;59.864;30.464;2023-07-02T01:32:38;24.08;49.89
78366;HTU21D;67641;59.864;30.464;2023-07-02T01:35:09;24.09;49.66
78366;HTU21D;67641;59.864;30.464;2023-07-02T01:37:35;24.12;49.87
78366;HTU21D;67641;59.864;30.464;2023-07-02T01:40:05;24.09;49.69
78366;HTU21D;67641;59.864;30.464;2023-07-02T01:42:32;24.09;49.36
78366;HTU21D;67641;59.864;30.464;2023-07-02T01:47:38;24.13;48.56
78366;HTU21D;67641;59.864;30.464;2023-07-02T01:50:05;24.10;48.86
78366;HTU21D;67641;59.864;30.464;2023-07-02T01:52:32;24.09;48.21
78366;HTU21D;67641;59.864;30.464;2023-07-02T01:55:01;24.08;48.13
78366;HTU21D;67641;59.864;30.464;2023-07-02T01:57:27;24.02;49.03
78366;HTU21D;67641;59.864;30.464;2023-07-02T01:59:56;24.02;48.81
78366;HTU21D;67641;59.864;30.464;2023-07-02T02:02:23;24.00;47.89
78366;HTU21D;67641;59.864;30.464;2023-07-02T02:07:07;23.97;48.69
78366;HTU21D;67641;59.864;30.464;2023-07-02T02:09:34;23.91;49.30
78366;HTU21D;67641;59.864;30.464;2023-07-02T02:12:00;23.90;49.28
78366;HTU21D;67641;59.864;30.464;2023-07-02T02:14:27;23.94;48.59
78366;HTU21D;67641;59.864;30.464;2023-07-02T02:16:53;23.95;48.61
78366;HTU21D;67641;59.864;30.464;2023-07-02T02:19:20;23.97;48.24
78366;HTU21D;67641;59.864;30.464;2023-07-02T02:21:46;24.00;48.28
78366;HTU21D;67641;59.864;30.464;2023-07-02T02:26:53;23.97;47.89
78366;HTU21D;67641;59.864;30.464;2023-07-02T02:29:20;23.96;47.09
78366;HTU21D;67641;59.864;30.464;2023-07-02T02:31:46;23.94;46.39
78366;HTU21D;67641;59.864;30.464;2023-07-02T02:34:13;23.95;46.43
78366;HTU21D;67641;59.864;30.464;2023-07-02T02:36:40;23.91;45.81
78366;HTU21D;67641;59.864;30.464;2023-07-02T02:39:07;23.91;44.73
78366;HTU21D;67641;59.864;30.464;2023-07-02T02:41:34;23.98;45.30
78366;HTU21D;67641;59.864;30.464;2023-07-02T02:46:35;23.92;46.84
78366;HTU21D;67641;59.864;30.464;2023-07-02T02:49:01;23.95;45.39
78366;HTU21D;67641;59.864;30.464;2023-07-02T02:51:28;23.97;46.87
78366;HTU21D;67641;59.864;30.464;2023-07-02T02:53:55;23.95;47.00
78366;HTU21D;67641;59.864;30.464;2023-07-02T02:56:21;23.94;47.52
78366;HTU21D;67641;59.864;30.464;2023-07-02T02:58:48;23.91;47.26
78366;HTU21D;67641;59.864;30.464;2023-07-02T03:01:14;23.89;47.81
78366;HTU21D;67641;59.864;30.464;2023-07-02T03:03:42;23.91;47.54
78366;HTU21D;67641;59.864;30.464;2023-07-02T03:07:32;23.98;47.88
78366;HTU21D;67641;59.864;30.464;2023-07-02T03:10:03;23.91;48.12
78366;HTU21D;67641;59.864;30.464;2023-07-02T03:12:29;23.90;48.93
78366;HTU21D;67641;59.864;30.464;2023-07-02T03:14:56;23.92;48.79
78366;HTU21D;67641;59.864;30.464;2023-07-02T03:17:23;23.92;48.47
78366;HTU21D;67641;59.864;30.464;2023-07-02T03:19:50;23.97;49.68
78366;HTU21D;67641;59.864;30.464;2023-07-02T03:22:17;23.96;49.74
78366;HTU21D;67641;59.864;30.464;2023-07-02T03:27:29;23.98;50.20
78366;HTU21D;67641;59.864;30.464;2023-07-02T03:29:56;24.02;50.88
78366;HTU21D;67641;59.864;30.464;2023-07-02T03:32:22;24.03;51.21
78366;HTU21D;67641;59.864;30.464;2023-07-02T03:34:49;24.09;52.41
78366;HTU21D;67641;59.864;30.464;2023-07-02T03:37:15;24.14;51.45
78366;HTU21D;67641;59.864;30.464;2023-07-02T03:39:42;24.17;51.69
78366;HTU21D;67641;59.864;30.464;2023-07-02T03:42:09;24.17;51.60
78366;HTU21D;67641;59.864;30.464;2023-07-02T03:44:35;24.21;52.50
78366;HTU21D;67641;59.864;30.464;2023-07-02T03:49:26;24.24;52.59
78366;HTU21D;67641;59.864;30.464;2023-07-02T03:51:53;24.31;52.72
78366;HTU21D;67641;59.864;30.464;2023-07-02T03:54:19;24.35;53.39
78366;HTU21D;67641;59.864;30.464;2023-07-02T03:56:46;24.42;54.50
78366;HTU21D;67641;59.864;30.464;2023-07-02T03:59:13;24.45;55.48
78366;HTU21D;67641;59.864;30.464;2023-07-02T04:01:39;24.48;56.36
78366;HTU21D;67641;59.864;30.464;2023-07-02T04:04:06;24.50;56.39
78366;HTU21D;67641;59.864;30.464;2023-07-02T04:09:20;24.64;57.20
78366;HTU21D;67641;59.864;30.464;2023-07-02T04:11:47;24.69;58.23
78366;HTU21D;67641;59.864;30.464;2023-07-02T04:14:13;24.73;58.93
78366;HTU21D;67641;59.864;30.464;2023-07-02T04:16:43;24.75;58.58
78366;HTU21D;67641;59.864;30.464;2023-07-02T04:19:10;24.77;58.83
78366;HTU21D;67641;59.864;30.464;2023-07-02T04:21:38;24.73;59.44
78366;HTU21D;67641;59.864;30.464;2023-07-02T04:24:06;24.69;60.35
78366;HTU21D;67641;59.864;30.464;2023-07-02T04:26:32;24.71;60.36
78366;HTU21D;67641;59.864;30.464;2023-07-02T04:30:19;24.79;60.67
78366;HTU21D;67641;59.864;30.464;2023-07-02T04:32:47;24.86;60.81
78366;HTU21D;67641;59.864;30.464;2023-07-02T04:35:16;24.92;60.22
78366;HTU21D;67641;59.864;30.464;2023-07-02T04:37:42;24.97;60.78
78366;HTU21D;67641;59.864;30.464;2023-07-02T04:40:09;25.00;60.67
78366;HTU21D;67641;59.864;30.464;2023-07-02T04:42:49;25.06;58.64
78366;HTU21D;67641;59.864;30.464;2023-07-02T04:45:25;25.06;57.54
78366;HTU21D;67641;59.864;30.464;2023-07-02T04:50:33;25.16;59.12
78366;HTU21D;67641;59.864;30.464;2023-07-02T04:52:59;25.18;58.51
78366;HTU21D;67641;59.864;30.464;2023-07-02T04:55:27;25.20;58.71
78366;HTU21D;67641;59.864;30.464;2023-07-02T04:57:53;25.25;58.92
78366;HTU21D;67641;59.864;30.464;2023-07-02T05:00:20;25.27;58.12
78366;HTU21D;67641;59.864;30.464;2023-07-02T05:02:48;25.27;59.60
78366;HTU21D;67641;59.864;30.464;2023-07-02T05:05:22;25.27;59.82
78366;HTU21D;67641;59.864;30.464;2023-07-02T05:10:28;25.28;58.93
78366;HTU21D;67641;59.864;30.464;2023-07-02T05:12:54;25.22;58.91
78366;HTU21D;67641;59.864;30.464;2023-07-02T05:15:24;25.20;59.12
78366;HTU21D;67641;59.864;30.464;2023-07-02T05:17:53;25.18;59.69
78366;HTU21D;67641;59.864;30.464;2023-07-02T05:20:21;25.27;59.81
78366;HTU21D;67641;59.864;30.464;2023-07-02T05:22:50;25.29;59.46
78366;HTU21D;67641;59.864;30.464;2023-07-02T05:25:17;25.25;58.96
78366;HTU21D;67641;59.864;30.464;2023-07-02T05:27:43;25.30;59.29
78366;HTU21D;67641;59.864;30.464;2023-07-02T05:30:56;25.39;59.95
78366;HTU21D;67641;59.864;30.464;2023-07-02T05:33:23;25.44;60.88
78366;HTU21D;67641;59.864;30.464;2023-07-02T05:35:54;25.50;59.47
78366;HTU21D;67641;59.864;30.464;2023-07-02T05:38:21;25.56;59.72
78366;HTU21D;67641;59.864;30.464;2023-07-02T05:40:50;25.61;59.50
78366;HTU21D;67641;59.864;30.464;2023-07-02T05:43:17;25.64;59.42
78366;HTU21D;67641;59.864;30.464;2023-07-02T05:45:44;25.67;60.18
78366;HTU21D;67641;59.864;30.464;2023-07-02T05:51:04;25.74;60.73
78366;HTU21D;67641;59.864;30.464;2023-07-02T05:53:31;25.73;64.25
78366;HTU21D;67641;59.864;30.464;2023-07-02T05:55:58;25.72;61.21
78366;HTU21D;67641;59.864;30.464;2023-07-02T05:58:24;25.71;59.48
78366;HTU21D;67641;59.864;30.464;2023-07-02T06:00:53;25.73;61.60
78366;HTU21D;67641;59.864;30.464;2023-07-02T06:03:19;25.78;60.36
78366;HTU21D;67641;59.864;30.464;2023-07-02T06:05:48;25.78;61.84
78366;HTU21D;67641;59.864;30.464;2023-07-02T06:10:32;25.83;60.06
78366;HTU21D;67641;59.864;30.464;2023-07-02T06:12:59;25.84;61.53
78366;HTU21D;67641;59.864;30.464;2023-07-02T06:15:28;25.89;63.55
78366;HTU21D;67641;59.864;30.464;2023-07-02T06:17:54;25.93;59.93
78366;HTU21D;67641;59.864;30.464;2023-07-02T06:20:21;25.97;62.82
78366;HTU21D;67641;59.864;30.464;2023-07-02T06:22:47;25.97;60.83
78366;HTU21D;67641;59.864;30.464;2023-07-02T06:25:14;26.03;63.18
78366;HTU21D;67641;59.864;30.464;2023-07-02T06:27:41;25.99;64.37
78366;HTU21D;67641;59.864;30.464;2023-07-02T06:30:43;26.01;60.82
78366;HTU21D;67641;59.864;30.464;2023-07-02T06:33:10;26.03;61.95
78366;HTU21D;67641;59.864;30.464;2023-07-02T06:35:37;26.04;62.18
78366;HTU21D;67641;59.864;30.464;2023-07-02T06:38:03;26.03;63.07
78366;HTU21D;67641;59.864;30.464;2023-07-02T06:40:30;26.04;63.84
78366;HTU21D;67641;59.864;30.464;2023-07-02T06:42:58;26.02;64.66
78366;HTU21D;67641;59.864;30.464;2023-07-02T06:45:26;26.05;62.96
78366;HTU21D;67641;59.864;30.464;2023-07-02T06:47:52;26.11;62.67
78366;HTU21D;67641;59.864;30.464;2023-07-02T06:50:28;26.13;62.86
78366;HTU21D;67641;59.864;30.464;2023-07-02T06:55:36;26.15;63.76
78366;HTU21D;67641;59.864;30.464;2023-07-02T06:58:07;26.16;62.94
78366;HTU21D;67641;59.864;30.464;2023-07-02T07:00:35;26.20;63.96
78366;HTU21D;67641;59.864;30.464;2023-07-02T07:03:03;26.20;62.70
78366;HTU21D;67641;59.864;30.464;2023-07-02T07:05:30;26.18;63.88
78366;HTU21D;67641;59.864;30.464;2023-07-02T07:07:58;26.20;63.78
78366;HTU21D;67641;59.864;30.464;2023-07-02T07:10:25;26.18;62.78
78366;HTU21D;67641;59.864;30.464;2023-07-02T07:15:34;26.23;64.08
78366;HTU21D;67641;59.864;30.464;2023-07-02T07:18:02;26.27;64.41
78366;HTU21D;67641;59.864;30.464;2023-07-02T07:20:32;26.31;63.74
78366;HTU21D;67641;59.864;30.464;2023-07-02T07:22:59;26.33;63.47
78366;HTU21D;67641;59.864;30.464;2023-07-02T07:25:31;26.37;63.11
78366;HTU21D;67641;59.864;30.464;2023-07-02T07:28:06;26.42;63.67
78366;HTU21D;67641;59.864;30.464;2023-07-02T07:30:33;26.43;62.50
78366;HTU21D;67641;59.864;30.464;2023-07-02T07:35:41;26.51;63.01
78366;HTU21D;67641;59.864;30.464;2023-07-02T07:38:08;26.51;61.59
78366;HTU21D;67641;59.864;30.464;2023-07-02T07:40:36;26.52;61.66
78366;HTU21D;67641;59.864;30.464;2023-07-02T07:43:03;26.57;61.97
78366;HTU21D;67641;59.864;30.464;2023-07-02T07:45:30;26.60;62.09
78366;HTU21D;67641;59.864;30.464;2023-07-02T07:47:56;26.55;62.04
78366;HTU21D;67641;59.864;30.464;2023-07-02T07:50:23;26.52;62.20
78366;HTU21D;67641;59.864;30.464;2023-07-02T07:55:30;26.61;61.75
78366;HTU21D;67641;59.864;30.464;2023-07-02T07:57:57;26.69;60.62
78366;HTU21D;67641;59.864;30.464;2023-07-02T08:00:26;26.80;60.34
78366;HTU21D;67641;59.864;30.464;2023-07-02T08:02:53;26.83;60.17
78366;HTU21D;67641;59.864;30.464;2023-07-02T08:05:24;26.91;59.95
78366;HTU21D;67641;59.864;30.464;2023-07-02T08:07:51;27.07;59.02
78366;HTU21D;67641;59.864;30.464;2023-07-02T08:10:21;27.11;58.76
78366;HTU21D;67641;59.864;30.464;2023-07-02T08:15:31;27.21;58.76
78366;HTU21D;67641;59.864;30.464;2023-07-02T08:17:58;27.24;58.48
78366;HTU21D;67641;59.864;30.464;2023-07-02T08:20:25;27.31;58.38
78366;HTU21D;67641;59.864;30.464;2023-07-02T08:22:52;27.37;57.30
78366;HTU21D;67641;59.864;30.464;2023-07-02T08:25:21;27.41;55.57
78366;HTU21D;67641;59.864;30.464;2023-07-02T08:27:48;27.47;58.65
78366;HTU21D;67641;59.864;30.464;2023-07-02T08:30:15;27.49;57.39
78366;HTU21D;67641;59.864;30.464;2023-07-02T08:35:26;27.56;55.97
78366;HTU21D;67641;59.864;30.464;2023-07-02T08:37:54;27.58;58.45
78366;HTU21D;67641;59.864;30.464;2023-07-02T08:40:21;27.61;58.47
78366;HTU21D;67641;59.864;30.464;2023-07-02T08:42:48;27.64;58.59
78366;HTU21D;67641;59.864;30.464;2023-07-02T08:45:15;27.68;58.77
78366;HTU21D;67641;59.864;30.464;2023-07-02T08:47:45;27.83;57.39
78366;HTU21D;67641;59.864;30.464;2023-07-02T08:50:13;27.93;58.98
78366;HTU21D;67641;59.864;30.464;2023-07-02T08:55:21;27.94;58.69
78366;HTU21D;67641;59.864;30.464;2023-07-02T08:57:53;27.97;57.84
78366;HTU21D;67641;59.864;30.464;2023-07-02T09:00:20;28.02;58.00
78366;HTU21D;67641;59.864;30.464;2023-07-02T09:02:48;28.06;59.02
78366;HTU21D;67641;59.864;30.464;2023-07-02T09:05:15;28.11;60.36
78366;HTU21D;67641;59.864;30.464;2023-07-02T09:07:49;28.10;60.12
78366;HTU21D;67641;59.864;30.464;2023-07-02T09:10:29;28.15;60.65
78366;HTU21D;67641;59.864;30.464;2023-07-02T09:15:50;28.34;61.02
78366;HTU21D;67641;59.864;30.464;2023-07-02T09:18:22;28.32;61.67
78366;HTU21D;67641;59.864;30.464;2023-07-02T09:20:54;28.44;61.38
78366;HTU21D;67641;59.864;30.464;2023-07-02T09:23:33;28.40;61.78
78366;HTU21D;67641;59.864;30.464;2023-07-02T09:26:01;28.23;63.17
78366;HTU21D;67641;59.864;30.464;2023-07-02T09:28:35;28.23;63.44
78366;HTU21D;67641;59.864;30.464;2023-07-02T09:31:46;28.31;63.45
78366;HTU21D;67641;59.864;30.464;2023-07-02T09:36:06;28.48;62.95
78366;HTU21D;67641;59.864;30.464;2023-07-02T09:38:33;28.49;64.22
78366;HTU21D;67641;59.864;30.464;2023-07-02T09:41:00;28.54;63.92
78366;HTU21D;67641;59.864;30.464;2023-07-02T09:43:26;28.62;64.01
78366;HTU21D;67641;59.864;30.464;2023-07-02T09:45:57;28.79;62.35
78366;HTU21D;67641;59.864;30.464;2023-07-02T09:48:33;28.89;62.15
78366;HTU21D;67641;59.864;30.464;2023-07-02T09:51:02;29.01;60.78
78366;HTU21D;67641;59.864;30.464;2023-07-02T09:54:07;29.01;61.92
78366;HTU21D;67641;59.864;30.464;2023-07-02T09:56:39;29.06;61.49
78366;HTU21D;67641;59.864;30.464;2023-07-02T09:59:10;29.16;62.06
78366;HTU21D;67641;59.864;30.464;2023-07-02T10:01:38;29.20;61.77
78366;HTU21D;67641;59.864;30.464;2023-07-02T10:04:18;29.30;60.02
78366;HTU21D;67641;59.864;30.464;2023-07-02T10:06:55;29.41;60.35
78366;HTU21D;67641;59.864;30.464;2023-07-02T10:28:25;30.38;55.39
78366;HTU21D;67641;59.864;30.464;2023-07-02T10:34:14;30.78;53.36
78366;HTU21D;67641;59.864;30.464;2023-07-02T10:43:34;31.29;52.96
78366;HTU21D;67641;59.864;30.464;2023-07-02T10:52:47;31.83;49.66
78366;HTU21D;67641;59.864;30.464;2023-07-02T10:55:20;31.99;48.90
78366;HTU21D;67641;59.864;30.464;2023-07-02T10:57:47;32.25;47.13
78366;HTU21D;67641;59.864;30.464;2023-07-02T11:02:04;32.66;44.88
78366;HTU21D;67641;59.864;30.464;2023-07-02T11:08:08;33.74;44.06
78366;HTU21D;67641;59.864;30.464;2023-07-02T11:10:35;34.07;39.27
78366;HTU21D;67641;59.864;30.464;2023-07-02T11:13:18;34.91;41.68
78366;HTU21D;67641;59.864;30.464;2023-07-02T11:15:45;35.52;39.25
78366;HTU21D;67641;59.864;30.464;2023-07-02T11:18:19;36.08;37.01
78366;HTU21D;67641;59.864;30.464;2023-07-02T11:22:07;37.62;33.83
78366;HTU21D;67641;59.864;30.464;2023-07-02T11:24:35;39.03;31.77
78366;HTU21D;67641;59.864;30.464;2023-07-02T11:27:05;39.29;27.81
78366;HTU21D;67641;59.864;30.464;2023-07-02T11:29:33;38.41;30.86
78366;HTU21D;67641;59.864;30.464;2023-07-02T11:32:10;39.20;29.92
78366;HTU21D;67641;59.864;30.464;2023-07-02T11:34:37;40.17;26.07
78366;HTU21D;67641;59.864;30.464;2023-07-02T11:37:04;40.47;27.25
78366;HTU21D;67641;59.864;30.464;2023-07-02T11:41:49;39.50;28.48
78366;HTU21D;67641;59.864;30.464;2023-07-02T11:44:16;39.43;28.59
78366;HTU21D;67641;59.864;30.464;2023-07-02T11:46:44;39.10;30.94
78366;HTU21D;67641;59.864;30.464;2023-07-02T11:49:13;38.98;29.72
78366;HTU21D;67641;59.864;30.464;2023-07-02T11:51:41;38.55;32.04
78366;HTU21D;67641;59.864;30.464;2023-07-02T11:54:17;38.15;32.98
78366;HTU21D;67641;59.864;30.464;2023-07-02T11:56:45;38.25;32.39
78366;HTU21D;67641;59.864;30.464;2023-07-02T11:59:12;38.10;33.04
78366;HTU21D;67641;59.864;30.464;2023-07-02T12:01:59;37.95;30.77
78366;HTU21D;67641;59.864;30.464;2023-07-02T12:04:25;37.95;33.99
78366;HTU21D;67641;59.864;30.464;2023-07-02T12:06:52;37.76;32.75
78366;HTU21D;67641;59.864;30.464;2023-07-02T12:09:19;37.46;32.43
78366;HTU21D;67641;59.864;30.464;2023-07-02T12:11:45;37.60;33.76
78366;HTU21D;67641;59.864;30.464;2023-07-02T12:14:12;37.51;35.25
78366;HTU21D;67641;59.864;30.464;2023-07-02T12:16:39;37.17;36.26
78366;HTU21D;67641;59.864;30.464;2023-07-02T12:21:47;36.17;38.08
78366;HTU21D;67641;59.864;30.464;2023-07-02T12:24:13;35.51;39.66
78366;HTU21D;67641;59.864;30.464;2023-07-02T12:26:41;35.19;39.65
78366;HTU21D;67641;59.864;30.464;2023-07-02T12:29:09;35.27;38.24
78366;HTU21D;67641;59.864;30.464;2023-07-02T12:31:36;35.41;38.89
78366;HTU21D;67641;59.864;30.464;2023-07-02T12:34:04;35.62;37.87
78366;HTU21D;67641;59.864;30.464;2023-07-02T12:36:31;35.58;39.46
78366;HTU21D;67641;59.864;30.464;2023-07-02T12:40:16;35.73;39.83
78366;HTU21D;67641;59.864;30.464;2023-07-02T12:42:45;35.49;39.79
78366;HTU21D;67641;59.864;30.464;2023-07-02T12:45:13;35.51;38.86
78366;HTU21D;67641;59.864;30.464;2023-07-02T12:47:43;35.40;39.32
78366;HTU21D;67641;59.864;30.464;2023-07-02T12:50:22;34.85;40.47
78366;HTU21D;67641;59.864;30.464;2023-07-02T12:52:49;34.95;40.83
78366;HTU21D;67641;59.864;30.464;2023-07-02T12:55:16;35.30;38.82
78366;HTU21D;67641;59.864;30.464;2023-07-02T12:59:41;35.28;35.49
78366;HTU21D;67641;59.864;30.464;2023-07-02T13:02:10;35.26;40.49
78366;HTU21D;67641;59.864;30.464;2023-07-02T13:04:38;35.18;38.65
78366;HTU21D;67641;59.864;30.464;2023-07-02T13:07:05;35.27;37.08
78366;HTU21D;67641;59.864;30.464;2023-07-02T13:09:35;35.38;35.15
78366;HTU21D;67641;59.864;30.464;2023-07-02T13:12:04;35.24;32.12
78366;HTU21D;67641;59.864;30.464;2023-07-02T13:14:33;34.76;34.14
78366;HTU21D;67641;59.864;30.464;2023-07-02T13:18:12;34.29;33.70
78366;HTU21D;67641;59.864;30.464;2023-07-02T13:20:40;34.39;32.83
78366;HTU21D;67641;59.864;30.464;2023-07-02T13:23:08;34.63;33.71
78366;HTU21D;67641;59.864;30.464;2023-07-02T13:49:40;33.70;40.89
78366;HTU21D;67641;59.864;30.464;2023-07-02T13:52:11;33.30;42.29
78366;HTU21D;67641;59.864;30.464;2023-07-02T13:54:48;32.94;45.44
78366;HTU21D;67641;59.864;30.464;2023-07-02T14:00:16;32.90;45.83
78366;HTU21D;67641;59.864;30.464;2023-07-02T14:02:43;33.32;46.35
78366;HTU21D;67641;59.864;30.464;2023-07-02T14:05:10;33.63;45.63
78366;HTU21D;67641;59.864;30.464;2023-07-02T14:07:37;33.88;46.16
78366;HTU21D;67641;59.864;30.464;2023-07-02T14:10:04;34.14;45.03
78366;HTU21D;67641;59.864;30.464;2023-07-02T14:12:32;34.26;43.33
78366;HTU21D;67641;59.864;30.464;2023-07-02T14:14:58;34.30;43.64
78366;HTU21D;67641;59.864;30.464;2023-07-02T14:20:05;34.60;41.90
78366;HTU21D;67641;59.864;30.464;2023-07-02T14:22:40;34.57;41.31
78366;HTU21D;67641;59.864;30.464;2023-07-02T15:03:28;33.85;47.85
78366;HTU21D;67641;59.864;30.464;2023-07-02T15:06:14;33.94;47.64
78366;HTU21D;67641;59.864;30.464;2023-07-02T15:08:42;33.90;47.11
78366;HTU21D;67641;59.864;30.464;2023-07-02T15:11:13;33.90;47.58
78366;HTU21D;67641;59.864;30.464;2023-07-02T15:13:40;33.96;47.89
78366;HTU21D;67641;59.864;30.464;2023-07-02T15:18:04;33.61;47.65
78366;HTU21D;67641;59.864;30.464;2023-07-02T15:20:30;33.48;48.73
78366;HTU21D;67641;59.864;30.464;2023-07-02T15:22:57;33.50;47.67
78366;HTU21D;67641;59.864;30.464;2023-07-02T15:25:26;33.50;45.45
78366;HTU21D;67641;59.864;30.464;2023-07-02T15:28:07;33.57;46.99
78366;HTU21D;67641;59.864;30.464;2023-07-02T15:30:44;33.55;43.39
78366;HTU21D;67641;59.864;30.464;2023-07-02T15:33:17;33.64;44.84
78366;HTU21D;67641;59.864;30.464;2023-07-02T15:36:19;33.48;43.92
78366;HTU21D;67641;59.864;30.464;2023-07-02T15:38:50;33.42;44.85
78366;HTU21D;67641;59.864;30.464;2023-07-02T15:41:19;33.41;45.66
78366;HTU21D;67641;59.864;30.464;2023-07-02T15:43:49;33.30;46.41
78366;HTU21D;67641;59.864;30.464;2023-07-02T15:46:20;33.19;45.45
78366;HTU21D;67641;59.864;30.464;2023-07-02T15:51:24;33.08;46.62
78366;HTU21D;67641;59.864;30.464;2023-07-02T15:53:51;32.87;47.87
78366;HTU21D;67641;59.864;30.464;2023-07-02T15:56:18;32.64;49.16
78366;HTU21D;67641;59.864;30.464;2023-07-02T15:58:45;32.41;50.20
78366;HTU21D;67641;59.864;30.464;2023-07-02T16:01:14;32.07;52.38
78366;HTU21D;67641;59.864;30.464;2023-07-02T16:03:42;31.83;54.24
78366;HTU21D;67641;59.864;30.464;2023-07-02T16:06:11;31.67;55.26
78366;HTU21D;67641;59.864;30.464;2023-07-02T16:08:38;31.68;54.62
78366;HTU21D;67641;59.864;30.464;2023-07-02T16:11:22;31.61;54.16
78366;HTU21D;67641;59.864;30.464;2023-07-02T16:13:50;31.58;54.68
78366;HTU21D;67641;59.864;30.464;2023-07-02T16:16:19;31.57;54.29
78366;HTU21D;67641;59.864;30.464;2023-07-02T16:18:46;31.53;54.53
78366;HTU21D;67641;59.864;30.464;2023-07-02T16:21:13;31.43;54.26
78366;HTU21D;67641;59.864;30.464;2023-07-02T16:23:40;31.34;54.90
78366;HTU21D;67641;59.864;30.464;2023-07-02T16:26:08;31.25;56.22
78366;HTU21D;67641;59.864;30.464;2023-07-02T16:31:07;31.24;55.62
78366;HTU21D;67641;59.864;30.464;2023-07-02T16:33:35;31.20;55.23
78366;HTU21D;67641;59.864;30.464;2023-07-02T16:36:06;31.11;55.41
78366;HTU21D;67641;59.864;30.464;2023-07-02T16:38:33;31.04;55.26
78366;HTU21D;67641;59.864;30.464;2023-07-02T16:41:01;30.99;55.58
78366;HTU21D;67641;59.864;30.464;2023-07-02T16:43:28;30.96;56.23
78366;HTU21D;67641;59.864;30.464;2023-07-02T16:45:55;30.91;55.97
78366;HTU21D;67641;59.864;30.464;2023-07-02T16:51:06;30.80;56.23
78366;HTU21D;67641;59.864;30.464;2023-07-02T16:53:33;30.76;56.82
78366;HTU21D;67641;59.864;30.464;2023-07-02T16:56:03;30.75;57.03
78366;HTU21D;67641;59.864;30.464;2023-07-02T16:58:30;30.70;56.78
78366;HTU21D;67641;59.864;30.464;2023-07-02T17:01:16;30.64;56.91
78366;HTU21D;67641;59.864;30.464;2023-07-02T17:03:43;30.57;57.69
78366;HTU21D;67641;59.864;30.464;2023-07-02T17:06:15;30.54;57.51
78366;HTU21D;67641;59.864;30.464;2023-07-02T17:11:38;30.41;57.19
78366;HTU21D;67641;59.864;30.464;2023-07-02T17:14:05;30.36;57.30
78366;HTU21D;67641;59.864;30.464;2023-07-02T17:16:31;30.33;56.45
78366;HTU21D;67641;59.864;30.464;2023-07-02T17:18:58;30.25;56.25
78366;HTU21D;67641;59.864;30.464;2023-07-02T17:21:25;30.19;56.94
78366;HTU21D;67641;59.864;30.464;2023-07-02T17:23:51;30.12;56.93
78366;HTU21D;67641;59.864;30.464;2023-07-02T17:26:19;30.11;57.26
78366;HTU21D;67641;59.864;30.464;2023-07-02T17:31:28;30.03;56.90
78366;HTU21D;67641;59.864;30.464;2023-07-02T17:33:54;29.97;57.13
78366;HTU21D;67641;59.864;30.464;2023-07-02T17:36:21;29.93;57.33
78366;HTU21D;67641;59.864;30.464;2023-07-02T17:38:47;29.86;57.35
78366;HTU21D;67641;59.864;30.464;2023-07-02T17:41:14;29.76;57.45
78366;HTU21D;67641;59.864;30.464;2023-07-02T17:43:40;29.75;57.55
78366;HTU21D;67641;59.864;30.464;2023-07-02T17:46:07;29.65;57.85
78366;HTU21D;67641;59.864;30.464;2023-07-02T17:51:25;29.53;57.71
78366;HTU21D;67641;59.864;30.464;2023-07-02T17:53:53;29.48;57.50
78366;HTU21D;67641;59.864;30.464;2023-07-02T17:56:20;29.43;57.57
78366;HTU21D;67641;59.864;30.464;2023-07-02T17:58:47;29.37;57.24
78366;HTU21D;67641;59.864;30.464;2023-07-02T18:01:16;29.32;57.88
78366;HTU21D;67641;59.864;30.464;2023-07-02T18:03:43;29.22;57.70
78366;HTU21D;67641;59.864;30.464;2023-07-02T18:06:10;29.16;57.68
78366;HTU21D;67641;59.864;30.464;2023-07-02T18:08:37;29.12;57.32
78366;HTU21D;67641;59.864;30.464;2023-07-02T18:12:10;29.02;56.80
78366;HTU21D;67641;59.864;30.464;2023-07-02T18:14:41;28.91;56.69
78366;HTU21D;67641;59.864;30.464;2023-07-02T18:17:09;28.80;53.10
78366;HTU21D;67641;59.864;30.464;2023-07-02T18:19:36;28.76;52.85
78366;HTU21D;67641;59.864;30.464;2023-07-02T18:22:03;28.77;52.99
78366;HTU21D;67641;59.864;30.464;2023-07-02T18:24:32;28.72;52.82
78366;HTU21D;67641;59.864;30.464;2023-07-02T18:27:00;28.67;52.26
78366;HTU21D;67641;59.864;30.464;2023-07-02T18:32:36;28.49;48.44
78366;HTU21D;67641;59.864;30.464;2023-07-02T18:35:03;28.45;48.78
78366;HTU21D;67641;59.864;30.464;2023-07-02T18:37:30;28.41;47.73
78366;HTU21D;67641;59.864;30.464;2023-07-02T18:39:56;28.32;47.12
78366;HTU21D;67641;59.864;30.464;2023-07-02T18:42:23;28.28;45.36
78366;HTU21D;67641;59.864;30.464;2023-07-02T18:44:50;28.26;45.12
78366;HTU21D;67641;59.864;30.464;2023-07-02T18:47:18;28.21;42.30
78366;HTU21D;67641;59.864;30.464;2023-07-02T18:49:45;28.16;40.33
78366;HTU21D;67641;59.864;30.464;2023-07-02T18:52:35;28.09;41.33
78366;HTU21D;67641;59.864;30.464;2023-07-02T18:55:02;28.08;38.04
78366;HTU21D;67641;59.864;30.464;2023-07-02T18:57:28;28.05;38.62
78366;HTU21D;67641;59.864;30.464;2023-07-02T18:59:55;28.02;37.01
78366;HTU21D;67641;59.864;30.464;2023-07-02T19:02:22;27.96;34.16
78366;HTU21D;67641;59.864;30.464;2023-07-02T19:04:51;27.96;32.31
78366;HTU21D;67641;59.864;30.464;2023-07-02T19:07:18;27.97;31.94
78366;HTU21D;67641;59.864;30.464;2023-07-02T19:12:34;27.93;32.83
78366;HTU21D;67641;59.864;30.464;2023-07-02T19:15:01;27.84;32.70
78366;HTU21D;67641;59.864;30.464;2023-07-02T19:17:28;27.83;31.38
78366;HTU21D;67641;59.864;30.464;2023-07-02T19:19:55;27.86;32.48
78366;HTU21D;67641;59.864;30.464;2023-07-02T19:22:21;27.80;32.09
78366;HTU21D;67641;59.864;30.464;2023-07-02T19:24:48;27.76;31.88
78366;HTU21D;67641;59.864;30.464;2023-07-02T19:27:15;27.70;32.08
78366;HTU21D;67641;59.864;30.464;2023-07-02T19:32:32;27.68;31.90
78366;HTU21D;67641;59.864;30.464;2023-07-02T19:35:04;27.68;32.06
78366;HTU21D;67641;59.864;30.464;2023-07-02T19:37:31;27.67;31.40
78366;HTU21D;67641;59.864;30.464;2023-07-02T19:39:58;27.60;31.60
78366;HTU21D;67641;59.864;30.464;2023-07-02T19:42:25;27.56;30.72
78366;HTU21D;67641;59.864;30.464;2023-07-02T19:44:57;27.54;29.95
78366;HTU21D;67641;59.864;30.464;2023-07-02T19:47:26;27.50;30.77
78366;HTU21D;67641;59.864;30.464;2023-07-02T19:52:32;27.36;29.74
78366;HTU21D;67641;59.864;30.464;2023-07-02T19:55:02;27.38;30.10
78366;HTU21D;67641;59.864;30.464;2023-07-02T19:57:29;27.38;29.76
78366;HTU21D;67641;59.864;30.464;2023-07-02T19:59:55;27.37;30.34